Latest Weather Observations for Esperance

IDW60801

Issued at 5:32 am WST Friday 6 May 2016 (issued every 30 minutes, with the page automatically refreshed every 10 minutes)

About weather observations | Map of weather stations | Latest weather observations for WA | Other Formats
Station Details ID: 009789 Name: ESPERANCE Lat: -33.83 Lon: 121.89 Height: 25.0 m
Data from the previous 72 hours. | See also: Recent months at Esperance
Date/Time
WST
Temp
°C
App
Temp
°C
Dew
Point
Rel
Hum
%
Delta-T
°C
Wind Press
QNH
hPa
Press
MSL
hPa
Rain
since 9 am
mm
Dir
 
Spd
km/h
Gust
km/h
Spd
kts
Gust
kts
06/05:30am 11.6 9.7 9.2 85 1.2 N 9 13 5 7 1012.5 1012.5 0.4
06/05:00am 11.1 9.2 8.9 86 1.1 N 9 11 5 6 1012.5 1012.5 0.4
06/04:30am 11.0 9.0 8.6 85 1.2 N 9 11 5 6 1012.5 1012.5 0.4
06/04:00am 11.0 9.0 8.6 85 1.2 NNE 9 13 5 7 1012.4 1012.4 0.4
06/03:30am 10.4 8.4 8.6 89 0.9 N 9 11 5 6 1012.8 1012.8 0.4
06/03:00am 9.8 7.7 8.1 89 0.8 N 9 11 5 6 1013.1 1013.1 0.4
06/02:30am 8.8 6.5 7.3 90 0.7 N 9 11 5 6 1013.4 1013.4 0.4
06/02:00am 8.7 6.8 7.6 93 0.5 NNW 7 9 4 5 1013.8 1013.8 0.4
06/01:30am 8.5 6.6 7.7 95 0.4 NNW 7 9 4 5 1013.6 1013.6 0.4
06/01:00am 8.7 7.3 7.4 91 0.6 WNW 4 7 2 4 1013.6 1013.6 0.4
06/12:30am 9.3 7.4 7.6 89 0.8 WNW 7 9 4 5 1013.8 1013.8 0.4
06/12:00am 9.3 7.2 8.1 92 0.6 NNW 9 9 5 5 1014.0 1014.0 0.4
 
Date/Time
WST
Temp
°C
App
Temp
°C
Dew
Point
Rel
Hum
%
Delta-T
°C
Wind Press
QNH
hPa
Press
MSL
hPa
Rain
since 9 am
mm
Dir
 
Spd
km/h
Gust
km/h
Spd
kts
Gust
kts
05/11:30pm 10.2 8.6 8.1 87 1.0 NNW 6 7 3 4 1014.2 1014.2 0.4
05/11:00pm 10.6 8.9 8.3 86 1.1 NNW 7 9 4 5 1014.5 1014.5 0.4
05/10:30pm 10.7 8.7 8.5 86 1.1 NNW 9 9 5 5 1014.9 1014.9 0.4
05/10:00pm 12.0 10.2 8.1 77 1.9 NW 7 9 4 5 1015.1 1015.1 0.4
05/09:30pm 12.6 11.0 8.6 76 2.0 WNW 7 9 4 5 1015.5 1015.4 0.4
05/09:00pm 13.3 11.6 8.3 72 2.5 W 7 9 4 5 1015.5 1015.4 0.4
05/08:30pm 14.2 12.4 8.0 66 3.1 WSW 7 11 4 6 1015.5 1015.4 0.4
05/08:00pm 14.5 12.7 8.1 65 3.2 W 7 9 4 5 1015.7 1015.6 0.4
05/07:30pm 14.9 13.2 8.3 64 3.3 WSW 7 9 4 5 1015.5 1015.4 0.4
05/07:00pm 15.1 13.0 8.4 64 3.4 SSW 9 15 5 8 1015.0 1015.0 0.4
05/06:30pm 15.4 12.9 8.3 62 3.6 S 11 17 6 9 1014.7 1014.7 0.4
05/06:00pm 14.9 12.6 7.6 61 3.6 SW 9 13 5 7 1014.6 1014.6 0.4
05/05:30pm 15.1 13.0 8.1 63 3.5 SW 9 13 5 7 1014.5 1014.5 0.4
05/05:00pm 15.8 13.4 8.5 62 3.7 WSW 11 17 6 9 1014.2 1014.2 0.4
05/04:30pm 16.7 13.7 7.5 54 4.6 SW 13 20 7 11 1014.0 1014.0 0.4
05/04:00pm 17.5 14.1 7.6 52 5.0 WSW 15 22 8 12 1014.0 1014.0 0.4
05/03:30pm 17.7 13.4 6.9 49 5.4 SW 19 24 10 13 1013.7 1013.7 0.4
05/03:00pm 17.6 13.7 7.2 50 5.2 SW 17 28 9 15 1013.7 1013.7 0.4
05/02:30pm 17.7 13.7 6.6 48 5.5 SW 17 26 9 14 1013.5 1013.5 0.4
05/02:00pm 18.4 14.7 8.1 51 5.3 SW 17 26 9 14 1013.5 1013.5 0.4
05/01:30pm 18.0 13.9 7.8 51 5.2 WSW 19 28 10 15 1013.4 1013.4 0.4
05/01:00pm 17.9 13.8 7.9 52 5.1 WSW 19 32 10 17 1013.6 1013.6 0.4
05/12:30pm 18.4 15.7 10.2 59 4.4 WSW 15 26 8 14 1013.7 1013.7 0.4
05/12:00pm 17.3 13.7 9.7 61 4.0 SW 19 33 10 18 1014.0 1014.0 0.4
05/11:30am 17.3 14.3 10.6 64 3.6 SW 17 32 9 17 1014.3 1014.3 0.4
05/11:00am 16.8 14.0 11.2 69 3.0 WSW 17 26 9 14 1014.5 1014.5 0.4
05/10:47am 16.5 13.5 11.9 74 2.5 WSW 19 30 10 16 1014.6 1014.6 0.4
05/10:30am 15.5 13.8 14.6 94 0.5 WNW 17 26 9 14 1014.7 1014.7 0.4
05/10:00am 15.5 15.0 15.0 97 0.3 NW 11 19 6 10 1014.5 1014.5 0.4
05/09:54am 15.2 14.7 14.9 98 0.2 NW 11 19 6 10 1014.4 1014.4 0.4
05/09:30am 14.6 13.5 14.2 97 0.2 NW 13 19 7 10 1014.5 1014.5 0.4
05/09:21am 14.4 14.0 14.0 97 0.2 NW 9 17 5 9 1014.4 1014.4 0.2
05/09:00am 13.6 11.4 13.4 99 0.1 WNW 17 22 9 12 1014.3 1014.3 0.8
05/08:30am 13.2 10.2 12.6 96 0.3 WNW 20 30 11 16 1014.1 1014.1 0.2
05/08:22am 13.2 10.3 12.3 94 0.5 WNW 19 26 10 14 1014.1 1014.1 0.2
05/08:00am 13.4 10.3 11.7 89 0.9 WNW 19 24 10 13 1013.8 1013.8 0.0
05/07:41am 13.5 10.7 11.2 86 1.2 WNW 17 22 9 12 1013.6 1013.6 0.0
05/07:30am 13.7 10.7 10.8 83 1.5 WNW 17 24 9 13 1013.5 1013.5 0.0
05/07:00am 13.5 9.9 10.6 82 1.5 WNW 20 28 11 15 1012.9 1012.9 0.0
05/06:30am 12.9 9.5 10.4 85 1.3 WNW 19 26 10 14 1012.6 1012.6 0.0
05/06:00am 13.0 9.4 10.5 85 1.3 WNW 20 28 11 15 1012.3 1012.3 0.0
05/05:30am 13.1 9.8 10.8 86 1.2 WNW 19 28 10 15 1012.0 1012.0 0.0
05/05:00am 13.0 10.1 10.9 87 1.1 WNW 17 20 9 11 1011.9 1011.9 0.0
05/04:30am 13.2 10.0 11.1 87 1.1 WNW 19 24 10 13 1011.5 1011.5 0.0
05/04:00am 13.6 10.7 11.1 85 1.3 WNW 17 22 9 12 1011.3 1011.3 0.0
05/03:30am 13.8 11.0 11.2 84 1.4 WNW 17 22 9 12 1011.2 1011.2 0.0
05/03:00am 14.0 11.2 11.2 83 1.5 WNW 17 24 9 13 1011.1 1011.1 0.0
05/02:30am 13.9 11.0 11.1 83 1.5 WNW 17 22 9 12 1011.1 1011.1 0.0
05/02:00am 13.8 10.5 10.8 82 1.6 WNW 19 26 10 14 1011.2 1011.2 0.0
05/01:30am 13.6 10.6 10.5 81 1.6 WNW 17 24 9 13 1011.2 1011.2 0.0
05/01:00am 13.6 10.6 10.5 81 1.6 WNW 17 24 9 13 1011.5 1011.5 0.0
05/12:30am 14.2 11.2 10.6 79 1.9 WNW 17 22 9 12 1011.5 1011.5 0.0
05/12:00am 14.3 11.3 10.5 78 2.0 WNW 17 20 9 11 1011.5 1011.5 0.0
 
Date/Time
WST
Temp
°C
App
Temp
°C
Dew
Point
Rel
Hum
%
Delta-T
°C
Wind Press
QNH
hPa
Press
MSL
hPa
Rain
since 9 am
mm
Dir
 
Spd
km/h
Gust
km/h
Spd
kts
Gust
kts
04/11:30pm 14.4 11.7 10.4 77 2.1 NW 15 20 8 11 1011.5 1011.5 0.0
04/11:00pm 14.9 11.8 10.3 74 2.4 WNW 17 24 9 13 1011.5 1011.5 0.0
04/10:30pm 14.7 11.6 10.3 75 2.3 WNW 17 22 9 12 1011.6 1011.6 0.0
04/10:00pm 14.4 11.7 10.4 77 2.1 WNW 15 20 8 11 1011.6 1011.6 0.0
04/09:30pm 13.4 11.5 10.5 82 1.5 NW 11 13 6 7 1011.7 1011.7 0.0
04/09:00pm 12.0 10.2 10.7 92 0.7 NNW 11 13 6 7 1011.9 1011.9 0.0
04/08:30pm 12.3 10.9 10.8 90 0.8 NNW 9 13 5 7 1012.1 1012.1 0.0
04/08:00pm 12.6 11.3 11.1 91 0.8 N 9 11 5 6 1012.0 1012.0 0.0
04/07:30pm 13.2 12.3 11.3 88 1.0 N 7 9 4 5 1012.0 1012.0 0.0
04/07:00pm 13.9 12.8 11.9 88 1.1 N 9 9 5 5 1011.9 1011.9 0.0
04/06:30pm 15.2 14.7 11.9 81 1.8 WNW 6 7 3 4 1011.8 1011.8 0.0
04/06:00pm 15.8 15.1 12.1 78 2.0 W 7 9 4 5 1011.6 1011.6 0.0
04/05:30pm 16.2 15.4 11.8 75 2.4 WSW 7 9 4 5 1011.4 1011.4 0.0
04/05:00pm 17.0 15.3 11.3 69 3.1 WSW 11 17 6 9 1011.4 1011.4 0.0
04/04:30pm 17.9 15.1 11.5 66 3.5 WSW 17 26 9 14 1011.5 1011.5 0.0
04/04:00pm 18.6 16.0 12.1 66 3.6 WSW 17 28 9 15 1011.7 1011.7 0.0
04/03:30pm 19.1 17.2 12.9 67 3.5 WSW 15 20 8 11 1011.7 1011.7 0.0
04/03:00pm 19.1 16.6 12.3 64 3.8 WSW 17 24 9 13 1011.8 1011.8 0.0
04/02:30pm 19.4 16.6 12.6 64 3.8 WSW 19 26 10 14 1011.8 1011.8 0.0
04/02:00pm 19.4 16.5 12.2 63 4.0 WSW 19 28 10 15 1012.0 1012.0 0.0
04/01:30pm 19.4 16.5 12.2 63 4.0 WSW 19 24 10 13 1012.2 1012.2 0.0
04/01:00pm 19.3 16.9 12.5 64 3.8 WSW 17 20 9 11 1012.6 1012.6 0.0
04/12:30pm 19.3 16.8 12.3 64 3.9 W 17 24 9 13 1013.0 1013.0 0.0
04/12:00pm 19.2 16.7 12.2 64 3.9 W 17 24 9 13 1013.6 1013.6 0.0
04/11:30am 20.7 18.3 12.6 59 4.6 WNW 17 26 9 14 1014.3 1014.3 0.0
04/11:00am 19.3 16.7 11.9 62 4.1 WNW 17 22 9 12 1014.7 1014.7 0.0
04/10:30am 19.2 16.7 12.2 64 3.9 NW 17 24 9 13 1015.0 1015.0 0.0
04/10:00am 18.4 15.8 12.1 66 3.5 NW 17 24 9 13 1015.3 1015.3 0.0
04/09:30am 17.1 13.9 11.4 69 3.1 NW 19 24 10 13 1015.8 1015.7 0.0
04/09:00am 16.2 13.0 11.2 72 2.7 WNW 19 24 10 13 1016.1 1016.0 -
04/08:30am 15.3 11.8 11.0 75 2.3 NW 20 26 11 14 1016.4 1016.3 -
04/08:00am 14.4 10.8 10.6 78 2.0 NW 20 30 11 16 1016.3 1016.2 -
04/07:30am 13.6 10.5 10.3 80 1.7 NW 17 24 9 13 1016.2 1016.1 -
04/07:00am 12.7 9.3 10.4 86 1.2 NW 19 26 10 14 1016.1 1016.0 -
04/06:30am 11.9 8.4 10.3 90 0.8 NW 19 26 10 14 1016.0 1015.9 -
04/06:00am 11.8 9.1 10.4 91 0.7 NW 15 20 8 11 1015.9 1015.8 -
04/05:30am 11.1 9.5 10.3 95 0.4 NW 9 13 5 7 1015.9 1015.8 -
04/05:00am 10.6 8.6 10.0 96 0.3 WNW 11 15 6 8 1015.9 1015.8 -
04/04:30am 10.6 8.6 10.2 97 0.2 WNW 11 13 6 7 1016.0 1015.9 -
04/04:00am 10.4 8.4 10.0 97 0.2 WNW 11 13 6 7 1016.1 1016.0 -
04/03:30am 9.9 8.2 9.7 99 0.1 NW 9 11 5 6 1016.2 1016.1 -
04/03:00am 10.0 8.2 9.4 96 0.3 WNW 9 9 5 5 1016.4 1016.3 0.0
04/02:30am 9.9 8.1 9.3 96 0.3 WNW 9 11 5 6 1016.7 1016.6 -
04/02:00am 10.6 9.5 9.8 95 0.4 WNW 6 7 3 4 1016.9 1016.8 -
04/01:30am 11.1 9.8 10.1 94 0.5 WNW 7 9 4 5 1017.3 1017.2 -
04/01:00am 10.9 9.6 10.1 95 0.4 NNW 7 9 4 5 1017.5 1017.4 -
04/12:30am 10.3 9.0 9.9 97 0.2 NNW 7 9 4 5 1017.8 1017.7 -
04/12:09am 10.7 9.5 10.3 97 0.2 NNW 7 9 4 5 1017.9 1017.8 -
04/12:00am 10.6 9.3 10.0 96 0.3 NNW 7 9 4 5 1017.9 1017.8 -
 
Date/Time
WST
Temp
°C
App
Temp
°C
Dew
Point
Rel
Hum
%
Delta-T
°C
Wind Press
QNH
hPa
Press
MSL
hPa
Rain
since 9 am
mm
Dir
 
Spd
km/h
Gust
km/h
Spd
kts
Gust
kts
03/11:59pm 10.6 9.3 10.0 96 0.3 NNW 7 9 4 5 1017.9 1017.8 -
03/11:30pm 10.9 9.6 10.1 95 0.4 N 7 9 4 5 1018.0 1017.9 -
03/11:00pm 11.5 10.4 10.5 94 0.5 N 7 9 4 5 1018.0 1017.9 -
03/10:54pm 11.5 10.4 10.5 94 0.5 NNW 7 9 4 5 1018.1 1018.0 -
03/10:30pm 11.5 10.0 10.5 94 0.5 N 9 11 5 6 1018.3 1018.2 -
03/10:23pm 11.6 9.7 10.4 92 0.6 N 11 15 6 8 1018.3 1018.2 -
03/10:00pm 12.1 10.7 10.8 92 0.7 N 9 9 5 5 1018.5 1018.4 -
03/09:30pm 12.2 11.1 10.7 90 0.8 N 7 9 4 5 1018.7 1018.6 -
03/09:00pm 12.7 11.3 11.0 89 0.9 N 9 9 5 5 1018.9 1018.8 0.0
03/08:30pm 12.9 12.0 11.2 89 0.9 NNW 7 9 4 5 1019.1 1019.0 -
03/08:00pm 13.7 12.7 11.0 84 1.4 NNW 7 7 4 4 1019.2 1019.1 -
03/07:30pm 14.5 13.5 11.1 80 1.8 W 7 9 4 5 1019.4 1019.3 -
03/07:00pm 14.4 13.6 11.0 80 1.8 W 6 9 3 5 1019.5 1019.4 -
03/06:30pm 15.0 14.0 11.0 77 2.1 W 7 9 4 5 1019.3 1019.2 -
03/06:00pm 15.4 14.4 11.1 75 2.3 WSW 7 9 4 5 1019.1 1019.0 -
03/05:30pm 15.9 14.5 11.0 72 2.6 WSW 9 13 5 7 1018.8 1018.7 -
03/05:00pm 16.8 15.0 11.0 68 3.1 WSW 11 17 6 9 1018.7 1018.6 -
03/04:30pm 17.5 15.4 11.0 65 3.5 SW 13 19 7 10 1018.6 1018.5 -
03/04:00pm 17.6 15.2 11.3 66 3.4 WSW 15 22 8 12 1018.6 1018.5 -
03/03:30pm 17.8 15.3 10.9 64 3.7 SW 15 24 8 13 1018.6 1018.5 -
03/03:00pm 18.1 14.9 11.1 63 3.8 SW 19 28 10 15 1018.5 1018.4 -
03/02:30pm 17.5 14.3 11.4 67 3.3 SSW 19 30 10 16 1018.5 1018.4 -
03/02:00pm 18.5 15.6 10.9 61 4.1 SW 17 37 9 20 1018.4 1018.3 -
03/01:30pm 18.5 15.2 11.6 64 3.8 SSW 20 28 11 15 1018.3 1018.2 -
03/01:00pm 19.6 15.9 11.6 60 4.4 WSW 22 39 12 21 1018.3 1018.2 0.0
03/12:30pm 19.0 15.1 10.9 59 4.4 WSW 22 32 12 17 1018.5 1018.4 0.0
03/12:00pm 20.1 16.4 10.3 53 5.3 WSW 20 32 11 17 1018.8 1018.7 0.0
03/11:30am 19.6 16.2 10.7 56 4.8 W 19 30 10 16 1019.1 1019.0 0.0
03/11:00am 18.5 15.1 10.7 60 4.2 WSW 19 30 10 16 1019.5 1019.4 0.0
03/10:30am 19.5 15.7 9.9 54 5.1 SW 20 32 11 17 1019.3 1019.2 0.0
03/10:00am 18.7 14.9 9.1 53 5.0 SW 19 30 10 16 1019.4 1019.3 0.0
03/09:30am 18.0 13.3 9.4 57 4.5 SW 24 37 13 20 1019.3 1019.2 0.0
03/09:00am 18.5 14.4 8.6 52 5.1 SW 20 35 11 19 1019.1 1019.0 0.2
03/08:30am 18.0 13.7 9.4 57 4.5 SW 22 32 12 17 1019.0 1018.9 0.2
03/08:00am 17.7 14.2 10.2 61 4.0 SW 19 28 10 15 1018.7 1018.6 0.2
03/07:30am 16.8 13.5 11.0 68 3.1 SW 19 30 10 16 1018.4 1018.3 0.2
03/07:00am 16.4 12.6 9.2 62 3.7 SW 19 28 10 15 1018.2 1018.1 0.2
03/06:30am 16.1 13.2 9.8 66 3.3 SW 15 32 8 17 1017.9 1017.8 0.2
03/06:00am 16.4 12.8 9.9 65 3.4 SW 19 33 10 18 1017.6 1017.5 0.2

Other Formats:

Comma delimited format used in spreadsheet applications
http://www.bom.gov.au/fwo/IDW60801/IDW60801.94638.axf

JavaScript Object Notation format (JSON) in row-major order
http://www.bom.gov.au/fwo/IDW60801/IDW60801.94638.json